Time;durP1;ratioP1;P1;durP2;ratioP2;P2;SDS_P1;SDS_P2;PMS_P1;PMS_P2;Temp;Humidity;BMP_temperature;BMP_pressure;BME280_temperature;BME280_humidity;BME280_pressure;Samples;Min_cycle;Max_cycle;Signal;HPM_P1;HPM_P2
2022/09/06 00:01:29;;;;;;;2.70;2.50;;;26.30;49.20;27.40;100741.00;;;;5069758;28;20219;-41
2022/09/06 00:03:54;;;;;;;3.05;2.70;;;26.40;49.20;27.40;100745.00;;;;5069822;28;20470;-42
2022/09/06 00:06:20;;;;;;;2.72;2.53;;;26.40;49.20;27.40;100739.00;;;;5069998;28;20185;-42
2022/09/06 00:08:46;;;;;;;2.90;2.60;;;26.40;49.20;27.40;100734.00;;;;5069279;28;20169;-42
2022/09/06 00:11:13;;;;;;;3.03;2.72;;;26.30;49.00;27.40;100732.00;;;;5069666;28;20189;-42
2022/09/06 00:13:39;;;;;;;2.80;2.50;;;26.30;49.10;27.30;100740.00;;;;5070023;28;20183;-40
2022/09/06 00:16:08;;;;;;;2.72;2.53;;;26.30;49.10;27.30;100739.00;;;;5068776;28;20202;-40
2022/09/06 00:18:34;;;;;;;2.92;2.70;;;26.20;48.90;27.30;100746.00;;;;5069718;28;20263;-43
2022/09/06 00:21:00;;;;;;;2.67;2.47;;;26.20;49.20;27.30;100752.00;;;;5068115;28;20673;-42
2022/09/06 00:23:26;;;;;;;2.88;2.67;;;26.20;48.90;27.20;100745.00;;;;5069383;28;20209;-42
2022/09/06 00:25:51;;;;;;;2.97;2.78;;;26.20;49.10;27.20;100752.00;;;;5069476;28;20166;-42
2022/09/06 00:28:18;;;;;;;2.80;2.50;;;26.30;49.20;27.20;100768.00;;;;5068815;28;20170;-41
2022/09/06 00:30:44;;;;;;;2.45;2.28;;;26.20;49.40;27.20;100771.00;;;;5069731;28;20206;-42
2022/09/06 00:33:10;;;;;;;2.63;2.42;;;26.20;49.10;27.20;100798.00;;;;5069307;28;20185;-41
2022/09/06 00:35:35;;;;;;;3.20;2.70;;;26.20;49.20;27.20;100827.00;;;;5069165;28;20177;-41
2022/09/06 00:38:01;;;;;;;2.80;2.50;;;26.10;48.70;27.20;100861.00;;;;5069342;28;20176;-42
2022/09/06 00:40:28;;;;;;;3.10;2.65;;;26.00;48.00;27.10;100865.00;;;;5068943;28;20189;-42
2022/09/06 00:42:55;;;;;;;3.80;2.67;;;25.80;47.40;27.00;100891.00;;;;5067846;28;20502;-41
2022/09/06 00:45:22;;;;;;;2.90;2.65;;;25.70;46.90;26.90;100890.00;;;;5069158;28;20513;-42
2022/09/06 00:47:48;;;;;;;2.97;2.67;;;25.60;46.70;26.80;100885.00;;;;5067634;28;20197;-42
2022/09/06 00:50:15;;;;;;;3.00;2.70;;;25.60;46.80;26.80;100864.00;;;;5067801;28;20217;-40
2022/09/06 00:52:41;;;;;;;3.30;2.78;;;25.50;47.10;26.80;100883.00;;;;5067691;28;20176;-41
2022/09/06 00:55:07;;;;;;;3.33;2.92;;;25.50;48.20;26.70;100883.00;;;;5051053;28;20166;-42
2022/09/06 00:57:33;;;;;;;4.57;3.05;;;25.50;49.20;26.70;100879.00;;;;5050719;28;20177;-41
2022/09/06 00:59:59;;;;;;;4.72;3.10;;;25.50;50.20;26.70;100874.00;;;;5073026;28;20531;-43
2022/09/06 01:02:25;;;;;;;4.75;2.90;;;25.50;51.00;26.70;100882.00;;;;5088902;28;20173;-42
2022/09/06 01:04:51;;;;;;;7.80;2.90;;;25.50;52.10;26.60;100876.00;;;;5083195;28;20436;-41
2022/09/06 01:07:48;;;;;;;6.05;3.13;;;25.50;52.40;26.60;100876.00;;;;5067712;28;20510;-41
2022/09/06 01:10:36;;;;;;;3.45;2.78;;;25.50;52.20;26.60;100864.00;;;;5068232;28;20276;-41
2022/09/06 01:13:19;;;;;;;3.13;2.78;;;25.60;52.00;26.60;100868.00;;;;5067316;28;20208;-41
2022/09/06 01:16:12;;;;;;;2.92;2.53;;;25.70;51.80;26.70;100857.00;;;;5067022;28;20188;-42
2022/09/06 01:19:41;;;;;;;4.88;3.20;;;25.80;51.80;26.70;100864.00;;;;5067314;28;20154;-43
2022/09/06 01:22:27;;;;;;;3.60;3.10;;;25.80;51.90;26.70;100851.00;;;;5036126;28;20189;-43
2022/09/06 01:25:24;;;;;;;3.13;2.67;;;25.80;52.60;26.70;100837.00;;;;5068645;28;20158;-40
2022/09/06 01:28:23;;;;;;;5.18;3.08;;;25.90;52.60;26.70;100838.00;;;;5067280;28;20169;-41
2022/09/06 01:31:01;;;;;;;3.97;2.80;;;25.90;53.80;26.60;100830.00;;;;5068256;28;20697;-40
2022/09/06 01:33:36;;;;;;;5.85;3.17;;;25.80;54.00;26.60;100844.00;;;;5068166;28;20166;-41
2022/09/06 01:36:05;;;;;;;4.28;3.17;;;25.80;54.80;26.60;100838.00;;;;5066974;28;20168;-43
2022/09/06 01:38:31;;;;;;;4.97;3.20;;;25.80;54.10;26.60;100856.00;;;;5050308;28;20448;-41
2022/09/06 01:40:56;;;;;;;5.43;3.22;;;25.80;54.50;26.60;100876.00;;;;5067632;28;20803;-42
2022/09/06 01:43:34;;;;;;;4.63;3.50;;;25.70;55.00;26.60;100872.00;;;;5068049;28;20324;-43
2022/09/06 01:46:11;;;;;;;3.40;2.97;;;25.60;55.60;26.60;100867.00;;;;5066774;28;20154;-41
2022/09/06 01:49:18;;;;;;;5.15;3.40;;;25.60;56.00;26.50;100872.00;;;;5066870;28;20586;-41
2022/09/06 01:52:57;;;;;;;4.65;3.42;;;25.60;56.30;26.50;100870.00;;;;5066399;28;20186;-40
2022/09/06 01:56:01;;;;;;;4.78;3.38;;;25.50;56.00;26.50;100865.00;;;;4939689;28;20214;-41
2022/09/06 01:58:52;;;;;;;4.55;3.17;;;25.60;56.20;26.20;100853.00;;;;5066199;28;20169;-42
2022/09/06 02:01:43;;;;;;;6.80;3.85;;;25.60;56.20;26.40;100858.00;;;;5067805;28;20208;-42
2022/09/06 02:04:27;;;;;;;5.25;3.55;;;25.50;56.70;26.30;100860.00;;;;5069242;28;20251;-42
2022/09/06 02:06:59;;;;;;;5.43;3.47;;;25.30;57.10;26.40;100867.00;;;;5066682;28;20168;-43
2022/09/06 02:09:26;;;;;;;7.55;3.95;;;25.40;56.90;26.40;100876.00;;;;5067538;28;20343;-42
2022/09/06 02:11:56;;;;;;;4.03;3.63;;;25.50;57.20;26.30;100879.00;;;;5066457;28;20165;-41
2022/09/06 02:14:54;;;;;;;4.35;3.67;;;25.50;57.20;26.30;100859.00;;;;5066547;28;20212;-41
2022/09/06 02:17:24;;;;;;;3.75;3.45;;;25.50;56.90;26.40;100846.00;;;;5065944;28;20196;-41
2022/09/06 02:20:17;;;;;;;4.82;3.10;;;25.50;56.70;26.40;100847.00;;;;5066429;28;20185;-41
2022/09/06 02:22:45;;;;;;;5.43;3.30;;;25.50;57.20;26.40;100825.00;;;;5067256;28;20647;-41
2022/09/06 02:25:15;;;;;;;4.38;3.40;;;25.50;56.20;26.40;100829.00;;;;5066120;28;20165;-42
2022/09/06 02:27:41;;;;;;;5.35;3.38;;;25.50;56.80;26.40;100821.00;;;;5066049;28;20165;-41
2022/09/06 02:30:07;;;;;;;3.70;3.40;;;25.50;57.00;26.40;100805.00;;;;5067311;28;20552;-41
2022/09/06 02:32:38;;;;;;;4.30;3.40;;;25.50;56.80;26.40;100800.00;;;;5065815;28;20220;-41
2022/09/06 02:35:13;;;;;;;4.45;3.50;;;25.50;57.10;26.40;100808.00;;;;5066330;28;20161;-41
2022/09/06 02:37:40;;;;;;;7.10;3.40;;;25.40;57.30;26.30;100813.00;;;;5066071;28;20158;-41
2022/09/06 02:40:07;;;;;;;4.25;3.30;;;25.30;57.50;26.30;100816.00;;;;5066201;28;20701;-41
2022/09/06 02:42:33;;;;;;;3.58;3.20;;;25.30;57.50;26.30;100811.00;;;;5067230;28;20681;-41
2022/09/06 02:44:59;;;;;;;4.13;3.35;;;25.40;57.20;26.30;100804.00;;;;5066075;28;20257;-41
2022/09/06 02:47:24;;;;;;;6.05;3.28;;;25.40;57.10;26.30;100803.00;;;;5066931;28;20716;-42
2022/09/06 02:49:50;;;;;;;3.80;3.20;;;25.40;57.10;26.30;100799.00;;;;5066914;28;20800;-43
2022/09/06 02:52:16;;;;;;;5.53;3.60;;;25.40;56.90;26.30;100793.00;;;;5067523;28;20169;-41
2022/09/06 02:54:42;;;;;;;4.28;3.40;;;25.50;56.90;26.30;100713.00;;;;5067101;28;20695;-41
2022/09/06 02:57:07;;;;;;;5.45;3.70;;;25.40;57.20;26.30;100776.00;;;;5067182;28;20170;-42
2022/09/06 02:59:33;;;;;;;4.25;3.47;;;25.50;57.50;26.30;100777.00;;;;5067457;28;20181;-41
2022/09/06 03:01:59;;;;;;;5.72;3.78;;;25.40;57.10;26.30;100774.00;;;;5067322;28;20181;-41
2022/09/06 03:04:25;;;;;;;4.97;3.60;;;25.40;57.30;26.30;100776.00;;;;5067206;28;20396;-43
2022/09/06 03:06:50;;;;;;;8.95;3.78;;;25.50;57.80;26.20;100786.00;;;;5067269;28;20177;-41
2022/09/06 03:09:16;;;;;;;5.43;3.80;;;25.40;57.80;26.20;100788.00;;;;5066864;28;20177;-41
2022/09/06 03:11:42;;;;;;;3.90;3.50;;;25.30;58.10;26.10;100797.00;;;;5067138;28;20331;-41
2022/09/06 03:14:08;;;;;;;4.10;3.70;;;25.30;57.80;26.10;100740.00;;;;5067097;28;20170;-41
2022/09/06 03:16:33;;;;;;;6.43;3.83;;;25.20;58.30;26.00;100816.00;;;;5066867;28;20197;-41
2022/09/06 03:18:59;;;;;;;4.72;3.75;;;25.20;58.40;26.00;100824.00;;;;5066560;28;20650;-41
2022/09/06 03:21:25;;;;;;;4.60;3.75;;;25.10;58.70;26.00;100825.00;;;;5066846;28;20710;-42
2022/09/06 03:23:51;;;;;;;5.00;3.78;;;25.10;58.70;25.90;100823.00;;;;5066446;28;20235;-41
2022/09/06 03:26:17;;;;;;;4.50;3.60;;;25.00;58.60;25.90;100820.00;;;;5067421;28;20584;-42
2022/09/06 03:28:43;;;;;;;4.20;3.30;;;25.00;58.60;25.90;100822.00;;;;5065534;28;20173;-44
2022/09/06 03:31:09;;;;;;;7.15;3.50;;;25.00;59.60;25.90;100810.00;;;;5066837;28;20554;-41
2022/09/06 03:33:34;;;;;;;5.68;3.60;;;25.00;59.70;25.90;100819.00;;;;5067196;28;20232;-41
2022/09/06 03:36:01;;;;;;;7.30;3.47;;;25.00;59.60;25.90;100784.00;;;;5066729;28;20261;-41
2022/09/06 03:38:28;;;;;;;6.63;3.30;;;25.00;59.40;25.90;100794.00;;;;5065279;28;20173;-42
2022/09/06 03:40:53;;;;;;;7.68;3.40;;;25.00;59.40;25.90;100798.00;;;;5066593;28;20335;-44
2022/09/06 03:43:20;;;;;;;3.70;3.40;;;25.00;60.00;25.90;100797.00;;;;5067275;28;20281;-41
2022/09/06 03:45:51;;;;;;;6.07;3.60;;;25.00;59.10;25.90;100795.00;;;;5067149;28;20240;-43
2022/09/06 03:48:19;;;;;;;4.00;3.30;;;25.00;59.00;25.90;100787.00;;;;5067694;28;20153;-40
2022/09/06 03:50:50;;;;;;;4.60;4.13;;;25.00;59.00;25.90;100783.00;;;;5069080;28;20849;-43
2022/09/06 03:53:15;;;;;;;8.57;7.72;;;25.00;58.60;25.90;100785.00;;;;5070614;28;20166;-42
2022/09/06 03:55:45;;;;;;;7.20;4.88;;;25.00;58.90;25.90;100787.00;;;;5070473;28;20212;-41
2022/09/06 03:58:11;;;;;;;5.03;4.10;;;25.00;58.30;25.90;100783.00;;;;5086326;28;20232;-42
2022/09/06 04:00:37;;;;;;;5.57;4.00;;;25.00;58.80;25.90;100777.00;;;;5070740;28;20562;-41
2022/09/06 04:03:03;;;;;;;4.03;3.58;;;25.00;58.80;25.90;100772.00;;;;5070280;28;20236;-41
2022/09/06 04:05:28;;;;;;;3.67;3.38;;;25.00;58.70;25.90;100772.00;;;;5070029;28;20532;-42
2022/09/06 04:07:54;;;;;;;5.47;3.60;;;25.00;58.60;25.90;100777.00;;;;5069664;28;20178;-42
2022/09/06 04:10:20;;;;;;;4.00;3.60;;;25.00;58.90;25.90;100769.00;;;;5069807;28;20583;-42
2022/09/06 04:12:45;;;;;;;3.60;3.30;;;25.00;58.90;25.90;100758.00;;;;5063920;28;20655;-43
2022/09/06 04:15:11;;;;;;;3.65;3.20;;;25.00;58.60;25.90;100762.00;;;;5060403;28;20182;-42
2022/09/06 04:17:37;;;;;;;5.60;3.50;;;25.00;58.60;25.80;100751.00;;;;5053816;28;20221;-43
2022/09/06 04:20:03;;;;;;;3.50;3.20;;;25.00;59.10;25.80;100750.00;;;;5053065;28;20190;-42
2022/09/06 04:22:29;;;;;;;7.63;3.30;;;25.00;58.70;25.80;100747.00;;;;5049482;28;20300;-42
2022/09/06 04:24:55;;;;;;;3.50;3.20;;;25.00;58.60;25.80;100753.00;;;;5049162;28;20258;-42
2022/09/06 04:27:21;;;;;;;4.55;3.42;;;25.00;58.60;25.80;100759.00;;;;5048814;28;20170;-41
2022/09/06 04:29:47;;;;;;;4.70;3.40;;;24.90;58.60;25.80;100760.00;;;;5049019;28;20546;-44
2022/09/06 04:32:12;;;;;;;4.40;3.45;;;24.90;58.80;25.70;100754.00;;;;5049098;28;20181;-41
2022/09/06 04:34:38;;;;;;;3.88;3.38;;;24.90;59.00;25.70;100760.00;;;;5049951;28;20174;-42
2022/09/06 04:37:04;;;;;;;4.32;3.20;;;24.90;58.60;25.70;100757.00;;;;5048312;28;20178;-41
2022/09/06 04:39:29;;;;;;;3.88;3.20;;;24.90;58.50;25.70;100763.00;;;;5048731;28;20547;-41
2022/09/06 04:41:55;;;;;;;3.72;3.25;;;24.90;58.50;25.70;100758.00;;;;5049076;28;20216;-42
2022/09/06 04:44:21;;;;;;;4.00;3.30;;;24.90;58.50;25.70;100763.00;;;;5048968;28;20225;-40
2022/09/06 04:46:47;;;;;;;4.15;3.70;;;24.80;58.60;25.60;100773.00;;;;5049092;28;20209;-41
2022/09/06 04:49:13;;;;;;;5.85;3.40;;;24.80;59.30;25.60;100770.00;;;;5048166;28;20170;-42
2022/09/06 04:51:39;;;;;;;3.53;3.10;;;24.70;59.00;25.60;100761.00;;;;5048529;28;20221;-43
2022/09/06 04:54:05;;;;;;;3.65;3.35;;;24.80;59.20;25.60;100777.00;;;;5048673;28;20232;-42
2022/09/06 04:56:31;;;;;;;3.50;3.20;;;24.80;58.50;25.60;100785.00;;;;5048793;28;20648;-42
2022/09/06 04:58:57;;;;;;;5.20;3.60;;;24.80;58.70;25.60;100785.00;;;;5048722;28;20174;-41
2022/09/06 05:01:24;;;;;;;3.53;3.20;;;24.80;58.50;25.60;100779.00;;;;5046625;28;20194;-41
2022/09/06 05:03:50;;;;;;;3.72;3.35;;;24.80;58.50;25.60;100780.00;;;;5047958;28;20340;-42
2022/09/06 05:06:21;;;;;;;4.13;3.55;;;24.80;58.10;25.60;100779.00;;;;5049147;28;20273;-41
2022/09/06 05:08:47;;;;;;;4.18;3.58;;;24.90;58.20;25.60;100729.00;;;;5048540;28;20161;-41
2022/09/06 05:11:13;;;;;;;3.65;3.35;;;24.80;58.00;25.60;100788.00;;;;5048602;28;20190;-41
2022/09/06 05:13:39;;;;;;;3.58;3.13;;;24.90;57.80;25.60;100796.00;;;;5047812;28;20265;-42
2022/09/06 05:16:06;;;;;;;3.30;3.00;;;24.80;57.50;25.60;100792.00;;;;5048499;28;20297;-42
2022/09/06 05:18:32;;;;;;;3.45;3.20;;;24.90;57.50;25.60;100796.00;;;;5047850;28;20854;-42
2022/09/06 05:20:58;;;;;;;3.53;3.10;;;24.90;57.30;25.60;100793.00;;;;5048628;28;20194;-42
2022/09/06 05:23:24;;;;;;;4.38;3.60;;;24.90;57.60;25.60;100794.00;;;;5048066;28;20291;-41
2022/09/06 05:25:50;;;;;;;4.03;3.42;;;24.90;57.50;25.60;100792.00;;;;5047451;28;20220;-42
2022/09/06 05:28:16;;;;;;;5.43;3.20;;;24.80;57.40;25.60;100791.00;;;;5047170;28;20220;-40
2022/09/06 05:30:41;;;;;;;5.35;3.60;;;24.80;57.60;25.60;100791.00;;;;5048112;28;20190;-46
2022/09/06 05:33:08;;;;;;;5.53;3.75;;;24.90;58.70;25.60;100795.00;;;;5048647;28;20178;-42
2022/09/06 05:35:34;;;;;;;4.68;3.50;;;24.80;58.70;25.50;100795.00;;;;5048810;28;20182;-41
2022/09/06 05:38:00;;;;;;;3.67;3.38;;;24.70;58.40;25.50;100792.00;;;;5048199;28;20170;-41
2022/09/06 05:40:26;;;;;;;4.28;3.25;;;24.80;57.90;25.50;100787.00;;;;5048129;28;20190;-40
2022/09/06 05:42:52;;;;;;;4.30;3.57;;;24.80;57.80;25.50;100795.00;;;;5048305;28;20714;-40
2022/09/06 05:45:18;;;;;;;5.00;3.50;;;24.80;58.20;25.50;100791.00;;;;5048124;28;20204;-40
2022/09/06 05:47:43;;;;;;;4.03;3.45;;;24.80;58.20;25.50;100790.00;;;;5066615;28;20224;-42
2022/09/06 05:50:09;;;;;;;3.90;3.50;;;24.80;57.60;25.50;100787.00;;;;5049899;28;20225;-42
2022/09/06 05:52:35;;;;;;;3.90;3.50;;;24.80;57.60;25.50;100782.00;;;;5047683;28;20174;-42
2022/09/06 05:55:01;;;;;;;5.47;3.92;;;24.80;57.90;25.50;100783.00;;;;5047803;28;20247;-41
2022/09/06 05:57:27;;;;;;;4.15;3.75;;;24.80;57.80;25.50;100785.00;;;;5047306;28;20269;-42
2022/09/06 05:59:53;;;;;;;4.05;3.45;;;24.70;58.50;25.40;100786.00;;;;5047503;28;20186;-41
2022/09/06 06:02:22;;;;;;;3.60;3.30;;;24.70;58.10;25.40;100781.00;;;;5046446;28;20177;-40
2022/09/06 06:04:48;;;;;;;5.07;3.65;;;24.70;58.40;25.40;100787.00;;;;5047047;28;20569;-41
2022/09/06 06:07:14;;;;;;;3.60;3.30;;;24.60;58.30;25.40;100784.00;;;;5047277;28;20175;-40
2022/09/06 06:09:40;;;;;;;5.22;3.60;;;24.60;58.30;25.40;100790.00;;;;5047428;28;20186;-41
2022/09/06 06:12:06;;;;;;;3.50;3.20;;;24.60;58.60;25.30;100784.00;;;;5046584;28;20175;-43
2022/09/06 06:14:32;;;;;;;4.20;3.45;;;24.60;58.40;25.30;100792.00;;;;5046501;28;20554;-41
2022/09/06 06:16:58;;;;;;;3.20;2.90;;;24.60;58.10;25.30;100797.00;;;;5045649;28;20181;-42
2022/09/06 06:19:25;;;;;;;4.95;3.40;;;24.60;58.40;25.30;100807.00;;;;5047031;28;20453;-41
2022/09/06 06:21:51;;;;;;;3.53;3.22;;;24.70;57.60;25.30;100788.00;;;;5047113;28;20277;-43
2022/09/06 06:24:17;;;;;;;4.10;2.90;;;24.70;57.40;25.30;100792.00;;;;5046506;28;20320;-42
2022/09/06 06:26:42;;;;;;;3.40;3.10;;;24.70;57.30;25.30;100799.00;;;;5047338;28;20249;-42
2022/09/06 06:29:08;;;;;;;5.90;3.30;;;24.70;57.30;25.30;100803.00;;;;5046741;28;20224;-42
2022/09/06 06:31:35;;;;;;;3.85;3.20;;;24.70;57.30;25.30;100799.00;;;;5046621;28;20633;-42
2022/09/06 06:34:04;;;;;;;3.72;3.33;;;24.60;57.10;25.30;100792.00;;;;5044317;28;20174;-43
2022/09/06 06:36:32;;;;;;;3.13;2.83;;;24.70;57.30;25.30;100789.00;;;;5008620;28;20173;-41
2022/09/06 06:38:58;;;;;;;3.47;2.93;;;24.60;57.10;25.30;100789.00;;;;5064964;28;20188;-42
2022/09/06 06:41:26;;;;;;;3.50;3.10;;;24.50;56.90;25.30;100785.00;;;;5066923;28;20197;-41
2022/09/06 06:43:56;;;;;;;3.17;2.87;;;24.50;57.10;25.30;100785.00;;;;5066988;28;20201;-42
2022/09/06 06:46:24;;;;;;;3.40;3.10;;;24.50;56.90;25.30;100790.00;;;;5066068;28;20170;-41
2022/09/06 06:48:50;;;;;;;3.47;3.08;;;24.40;57.50;25.30;100788.00;;;;5067274;28;20169;-40
2022/09/06 06:51:17;;;;;;;5.90;3.17;;;24.40;57.00;25.30;100782.00;;;;5067032;28;20193;-40
2022/09/06 06:53:46;;;;;;;3.50;3.10;;;24.40;57.00;25.30;100779.00;;;;5070499;28;20759;-41
2022/09/06 06:56:21;;;;;;;3.83;3.03;;;24.40;57.10;25.30;100776.00;;;;5088563;28;20237;-41
2022/09/06 06:58:49;;;;;;;3.40;3.10;;;24.40;57.10;25.30;100771.00;;;;5087530;28;20188;-42
2022/09/06 07:01:15;;;;;;;4.80;3.03;;;24.40;57.10;25.30;100788.00;;;;5086745;28;20778;-40
2022/09/06 07:03:41;;;;;;;3.30;2.97;;;24.40;57.10;25.30;100775.00;;;;5060855;28;20228;-44
2022/09/06 07:06:07;;;;;;;2.95;2.75;;;24.40;57.10;25.30;100780.00;;;;5046396;28;20467;-44
2022/09/06 07:08:33;;;;;;;4.40;3.10;;;24.40;57.30;25.30;100766.00;;;;5047354;28;20173;-42
2022/09/06 07:10:59;;;;;;;3.53;3.10;;;24.40;57.70;25.30;100770.00;;;;5045163;28;20202;-43
2022/09/06 07:13:25;;;;;;;4.00;3.10;;;24.40;57.60;25.30;100784.00;;;;5047192;28;20647;-42
2022/09/06 07:15:50;;;;;;;3.60;3.20;;;24.40;57.60;25.30;100785.00;;;;5046778;28;20171;-40
2022/09/06 07:18:16;;;;;;;3.40;3.00;;;24.40;57.80;25.20;100777.00;;;;5046379;28;20182;-40
2022/09/06 07:20:42;;;;;;;3.15;2.85;;;24.40;58.20;25.30;100779.00;;;;5046499;28;20190;-40
2022/09/06 07:23:08;;;;;;;3.77;3.10;;;24.40;58.20;25.30;100778.00;;;;5046672;28;20662;-42
2022/09/06 07:25:34;;;;;;;3.30;2.47;;;24.50;58.70;25.30;100784.00;;;;5049473;28;20690;-42
2022/09/06 07:28:05;;;;;;;4.22;2.80;;;24.50;58.10;25.30;100710.00;;;;5053718;28;20172;-42
2022/09/06 07:30:35;;;;;;;3.63;3.08;;;24.50;58.00;25.20;100773.00;;;;5073480;28;20189;-42
2022/09/06 07:33:04;;;;;;;4.43;2.90;;;24.50;58.90;25.20;100769.00;;;;5071694;28;20177;-41
2022/09/06 07:35:30;;;;;;;3.90;2.60;;;24.50;59.10;25.20;100772.00;;;;5024531;28;20256;-42
2022/09/06 07:37:58;;;;;;;3.40;2.80;;;24.50;58.90;25.20;100774.00;;;;5070351;28;20166;-42
2022/09/06 07:40:25;;;;;;;5.07;2.85;;;24.50;59.20;25.20;100772.00;;;;5069555;28;20205;-43
2022/09/06 07:42:51;;;;;;;3.90;2.70;;;24.50;59.50;25.30;100771.00;;;;5070168;28;20538;-42
2022/09/06 07:45:17;;;;;;;2.80;2.60;;;24.50;59.10;25.30;100773.00;;;;5069252;28;20197;-42
2022/09/06 07:47:43;;;;;;;4.05;2.63;;;24.50;58.50;25.30;100778.00;;;;5070702;28;20178;-42
2022/09/06 07:50:09;;;;;;;3.45;2.58;;;24.50;58.90;25.30;100770.00;;;;5070990;28;20610;-41
2022/09/06 07:52:35;;;;;;;3.97;2.63;;;24.50;58.80;25.20;100780.00;;;;5070219;28;20174;-42
2022/09/06 07:55:00;;;;;;;3.70;2.53;;;24.40;58.50;25.20;100770.00;;;;5069789;28;20169;-41
2022/09/06 07:57:26;;;;;;;2.70;2.50;;;24.40;58.60;25.20;100778.00;;;;5086136;28;20170;-44
2022/09/06 07:59:52;;;;;;;2.90;2.60;;;24.30;58.50;25.20;100778.00;;;;5074771;28;20189;-41
2022/09/06 08:02:18;;;;;;;5.50;2.70;;;24.30;58.40;25.20;100783.00;;;;5070384;28;20690;-41
2022/09/06 08:04:44;;;;;;;6.38;2.63;;;24.40;58.20;25.10;100778.00;;;;5069614;28;20202;-41
2022/09/06 08:07:09;;;;;;;2.80;2.60;;;24.30;58.10;25.10;100782.00;;;;5069626;28;20295;-42
2022/09/06 08:09:35;;;;;;;3.30;2.40;;;24.30;58.20;25.10;100783.00;;;;5069716;28;20265;-42
2022/09/06 08:12:05;;;;;;;2.90;2.60;;;24.30;58.10;25.10;100782.00;;;;5068783;28;20644;-42
2022/09/06 08:14:32;;;;;;;2.70;2.50;;;24.40;58.30;25.10;100780.00;;;;5069888;28;20646;-42
2022/09/06 08:16:57;;;;;;;3.83;2.30;;;24.40;58.40;25.10;100786.00;;;;5069576;28;20188;-42
2022/09/06 08:19:23;;;;;;;2.70;2.50;;;24.40;58.20;25.10;100790.00;;;;5069732;28;20288;-41
2022/09/06 08:21:49;;;;;;;3.72;2.60;;;24.40;58.10;25.10;100785.00;;;;5069441;28;20200;-41
2022/09/06 08:24:15;;;;;;;2.67;2.47;;;24.40;57.90;25.10;100789.00;;;;5069554;28;20185;-41
2022/09/06 08:26:43;;;;;;;5.17;2.50;;;24.40;58.20;25.10;100785.00;;;;5069598;28;20181;-40
2022/09/06 08:29:09;;;;;;;2.50;2.30;;;24.40;57.80;25.10;100785.00;;;;5069687;28;20642;-42
2022/09/06 08:31:37;;;;;;;3.53;2.40;;;24.30;57.70;25.10;100785.00;;;;5069339;28;20216;-42
2022/09/06 08:34:03;;;;;;;2.60;2.40;;;24.40;57.90;25.10;100774.00;;;;5069724;28;20166;-41
2022/09/06 08:36:29;;;;;;;2.77;2.40;;;24.40;57.40;25.10;100782.00;;;;5068473;28;20679;-43
2022/09/06 08:38:59;;;;;;;2.60;2.40;;;24.40;57.50;25.10;100773.00;;;;5069305;28;20170;-41
2022/09/06 08:42:04;;;;;;;2.40;2.20;;;24.40;57.40;25.10;100770.00;;;;5069798;28;20196;-43
2022/09/06 08:44:50;;;;;;;2.43;2.10;;;24.50;57.40;25.10;100765.00;;;;5068435;28;20189;-41
2022/09/06 08:47:20;;;;;;;2.60;2.10;;;24.50;57.10;25.10;100767.00;;;;5051353;28;20161;-42
2022/09/06 08:49:53;;;;;;;3.10;2.27;;;24.50;57.10;25.10;100778.00;;;;5069522;28;20498;-42
2022/09/06 08:52:58;;;;;;;2.53;2.00;;;24.50;57.10;25.10;100766.00;;;;5068025;28;20184;-41
2022/09/06 08:55:41;;;;;;;2.30;2.10;;;24.50;56.70;25.10;100761.00;;;;5068416;28;20205;-41
2022/09/06 08:58:47;;;;;;;2.50;2.28;;;24.50;56.40;25.10;100769.00;;;;5067681;28;20231;-41
2022/09/06 09:01:17;;;;;;;4.77;2.27;;;24.50;56.60;25.20;100761.00;;;;5067876;28;20201;-48
2022/09/06 09:03:43;;;;;;;7.47;2.20;;;24.60;56.90;25.20;100756.00;;;;5067645;28;20464;-43
2022/09/06 09:06:09;;;;;;;7.53;2.00;;;24.60;56.10;25.20;100761.00;;;;5067833;28;20412;-41
2022/09/06 09:08:53;;;;;;;6.13;2.47;;;24.60;56.40;25.20;100755.00;;;;4924982;28;20416;-42
2022/09/06 09:11:20;;;;;;;11.27;2.65;;;24.60;56.20;25.20;100748.00;;;;5066871;28;20193;-43
2022/09/06 09:13:46;;;;;;;3.97;1.90;;;24.60;56.20;25.20;100755.00;;;;5064342;28;20208;-41
2022/09/06 09:16:13;;;;;;;2.27;1.70;;;24.70;55.80;25.20;100741.00;;;;5067565;28;20169;-42
2022/09/06 09:18:41;;;;;;;4.07;1.98;;;24.60;55.80;25.20;100750.00;;;;5066536;28;20165;-41
2022/09/06 09:21:07;;;;;;;3.13;2.10;;;24.60;55.00;25.20;100741.00;;;;5050064;28;20651;-41
2022/09/06 09:23:33;;;;;;;2.10;1.90;;;24.70;55.30;25.30;100740.00;;;;5066348;28;20672;-41
2022/09/06 09:26:10;;;;;;;1.90;1.80;;;24.70;54.70;25.30;100732.00;;;;5049703;28;20253;-41
2022/09/06 09:28:36;;;;;;;2.55;1.90;;;24.70;54.10;25.10;100732.00;;;;5065951;28;20177;-41
2022/09/06 09:31:02;;;;;;;2.75;1.98;;;24.70;54.00;25.30;100730.00;;;;5067385;28;20187;-41
2022/09/06 09:33:29;;;;;;;3.23;2.00;;;24.70;54.10;25.30;100727.00;;;;5066588;28;20226;-42
2022/09/06 09:36:00;;;;;;;4.27;2.20;;;24.70;54.10;25.30;100725.00;;;;5067497;28;20536;-41
2022/09/06 09:38:29;;;;;;;2.27;1.80;;;24.70;55.30;25.40;100722.00;;;;5067686;28;20543;-40
2022/09/06 09:41:05;;;;;;;2.30;2.10;;;24.80;55.00;25.40;100728.00;;;;5049522;28;20200;-41
2022/09/06 09:43:39;;;;;;;3.05;1.98;;;24.80;54.70;25.40;100721.00;;;;5068569;28;20556;-41
2022/09/06 09:46:21;;;;;;;2.95;2.35;;;24.90;54.20;25.40;100718.00;;;;5066992;28;20154;-41
2022/09/06 09:49:11;;;;;;;5.15;2.13;;;24.90;55.10;25.40;100710.00;;;;5062643;28;20358;-43
2022/09/06 09:51:42;;;;;;;4.60;2.10;;;25.00;55.50;25.50;100711.00;;;;5058084;28;20369;-42
2022/09/06 09:54:11;;;;;;;2.80;1.92;;;25.00;55.50;25.50;100709.00;;;;5067792;28;20595;-44
2022/09/06 09:56:38;;;;;;;5.03;2.10;;;25.00;55.00;25.50;100708.00;;;;5076468;28;20177;-42
2022/09/06 09:59:43;;;;;;;2.75;1.98;;;25.00;54.80;25.50;100699.00;;;;5089301;28;20203;-44
2022/09/06 10:02:22;;;;;;;5.10;2.40;;;25.00;54.50;25.60;100687.00;;;;5062631;28;20691;-42
2022/09/06 10:04:50;;;;;;;5.25;2.20;;;25.10;54.00;25.60;100689.00;;;;5051118;28;20221;-43
2022/09/06 10:07:22;;;;;;;3.55;2.40;;;25.20;54.40;25.60;100688.00;;;;5066867;28;20166;-43
2022/09/06 10:10:05;;;;;;;2.92;2.00;;;25.20;54.40;25.70;100698.00;;;;4923087;28;20658;-44
2022/09/06 10:12:38;;;;;;;2.30;1.92;;;25.20;53.70;25.70;100698.00;;;;5069350;28;20158;-44
2022/09/06 10:15:05;;;;;;;4.68;2.15;;;25.30;53.20;25.70;100669.00;;;;5068917;28;20572;-43
2022/09/06 10:17:34;;;;;;;3.83;1.90;;;25.30;53.30;25.70;100698.00;;;;5075805;28;20237;-43
2022/09/06 10:20:11;;;;;;;2.35;1.98;;;25.30;52.90;25.70;100701.00;;;;5069761;28;20200;-43
2022/09/06 10:23:08;;;;;;;2.25;1.88;;;25.40;52.90;25.80;100697.00;;;;5084049;28;20626;-43
2022/09/06 10:26:37;;;;;;;2.30;2.10;;;25.50;53.70;25.80;100697.00;;;;5068672;28;20260;-42
2022/09/06 10:29:08;;;;;;;4.07;2.10;;;25.50;53.90;25.80;100687.00;;;;5058209;28;20246;-43
2022/09/06 10:32:20;;;;;;;1.98;1.88;;;25.50;53.30;25.90;100632.00;;;;5067369;28;20204;-44
2022/09/06 10:35:16;;;;;;;2.30;2.08;;;25.50;52.80;25.90;100679.00;;;;5067317;28;20170;-43
2022/09/06 10:38:12;;;;;;;2.70;2.28;;;25.60;53.10;25.90;100689.00;;;;5067031;28;20160;-44
2022/09/06 10:40:56;;;;;;;2.03;1.85;;;25.60;53.70;25.90;100684.00;;;;5058463;28;20197;-43
2022/09/06 10:43:22;;;;;;;2.47;2.10;;;25.70;53.30;26.00;100692.00;;;;5072484;28;20300;-45
2022/09/06 10:46:01;;;;;;;2.63;2.00;;;25.70;52.50;26.00;100687.00;;;;5086530;28;20169;-42
2022/09/06 10:48:40;;;;;;;2.30;2.10;;;25.80;52.30;26.10;100686.00;;;;5087818;28;20176;-43
2022/09/06 10:51:30;;;;;;;3.35;2.00;;;25.90;51.90;26.10;100674.00;;;;5087128;28;20297;-44
2022/09/06 10:53:59;;;;;;;4.13;2.10;;;25.90;51.30;26.20;100696.00;;;;5087570;28;20188;-43
2022/09/06 10:56:57;;;;;;;3.28;2.00;;;26.00;51.00;26.20;100694.00;;;;5088233;28;20199;-43
2022/09/06 10:59:40;;;;;;;4.20;2.15;;;26.10;50.60;26.20;100682.00;;;;5090562;28;20153;-43
2022/09/06 11:02:34;;;;;;;2.40;2.20;;;26.10;50.60;26.30;100682.00;;;;5074586;28;20176;-42
2022/09/06 11:05:26;;;;;;;4.80;2.20;;;26.10;51.50;26.30;100671.00;;;;5072245;28;20247;-43